createdAt,value
2022-10-18T00:01:10.043Z,4.43
2022-10-18T00:03:38.823Z,4.40
2022-10-18T00:06:09.423Z,4.36
2022-10-18T00:08:39.140Z,4.48
2022-10-18T00:11:08.218Z,4.35
2022-10-18T00:13:36.069Z,4.27
2022-10-18T00:16:06.620Z,4.32
2022-10-18T00:18:34.994Z,4.32
2022-10-18T00:21:13.375Z,4.45
2022-10-18T00:23:42.085Z,4.32
2022-10-18T00:26:22.770Z,4.23
2022-10-18T00:28:54.077Z,4.27
2022-10-18T00:31:23.425Z,4.36
2022-10-18T00:34:06.509Z,4.28
2022-10-18T00:36:34.988Z,4.31
2022-10-18T00:39:05.369Z,4.29
2022-10-18T00:41:38.329Z,4.39
2022-10-18T00:44:26.866Z,4.24
2022-10-18T00:47:01.815Z,4.31
2022-10-18T00:50:02.288Z,4.23
2022-10-18T00:52:41.170Z,4.21
2022-10-18T00:55:10.732Z,4.15
2022-10-18T00:57:43.631Z,4.23
2022-10-18T01:00:13.140Z,4.14
2022-10-18T01:02:43.050Z,4.13
2022-10-18T01:05:16.606Z,4.23
2022-10-18T01:08:05.308Z,4.23
2022-10-18T01:10:48.255Z,4.23
2022-10-18T01:13:47.125Z,4.20
2022-10-18T01:16:26.991Z,4.19
2022-10-18T01:19:01.181Z,4.10
2022-10-18T01:21:54.222Z,4.14
2022-10-18T01:24:45.966Z,4.13
2022-10-18T01:27:31.247Z,4.15
2022-10-18T01:30:20.879Z,4.13
2022-10-18T01:32:55.040Z,4.15
2022-10-18T01:35:30.320Z,4.21
2022-10-18T01:38:03.908Z,4.29
2022-10-18T01:40:32.985Z,4.30
2022-10-18T01:43:02.922Z,4.25
2022-10-18T01:45:32.140Z,4.33
2022-10-18T01:48:01.140Z,4.23
2022-10-18T01:50:31.953Z,4.36
2022-10-18T01:53:03.403Z,4.30
2022-10-18T01:55:39.545Z,4.28
2022-10-18T01:58:30.350Z,4.33
2022-10-18T02:01:09.193Z,4.32
2022-10-18T02:03:42.777Z,4.41
2022-10-18T02:06:20.589Z,4.38
2022-10-18T02:09:03.964Z,4.52
2022-10-18T02:11:33.561Z,4.52
2022-10-18T02:14:08.837Z,4.53
2022-10-18T02:16:49.544Z,4.57
2022-10-18T02:22:01.549Z,4.55
2022-10-18T02:24:37.403Z,4.53
2022-10-18T02:27:05.448Z,4.60
2022-10-18T02:29:34.703Z,4.68
2022-10-18T02:32:26.141Z,4.64
2022-10-18T02:35:02.580Z,4.72
2022-10-18T02:37:35.594Z,4.70
2022-10-18T02:40:06.324Z,4.62
2022-10-18T02:42:39.934Z,4.72
2022-10-18T02:45:08.454Z,4.80
2022-10-18T02:47:36.420Z,4.76
2022-10-18T02:50:04.567Z,4.84
2022-10-18T02:52:32.846Z,4.93
2022-10-18T02:55:01.628Z,4.91
2022-10-18T02:57:31.328Z,4.84
2022-10-18T02:59:59.955Z,4.87
2022-10-18T03:02:27.903Z,4.92
2022-10-18T03:04:55.849Z,4.96
2022-10-18T03:07:24.307Z,4.87
2022-10-18T03:09:52.339Z,4.90
2022-10-18T03:12:20.317Z,4.86
2022-10-18T03:14:48.523Z,4.91
2022-10-18T03:17:16.505Z,4.91
2022-10-18T03:19:44.195Z,4.93
2022-10-18T03:22:12.542Z,5.00
2022-10-18T03:24:40.200Z,5.04
2022-10-18T03:27:08.162Z,5.01
2022-10-18T03:29:36.242Z,5.08
2022-10-18T03:32:04.229Z,5.07
2022-10-18T03:34:31.973Z,5.17
2022-10-18T03:37:03.375Z,5.02
2022-10-18T03:39:33.850Z,5.06
2022-10-18T03:42:05.272Z,4.89
2022-10-18T03:44:33.175Z,4.99
2022-10-18T03:47:00.995Z,4.98
2022-10-18T03:49:29.289Z,4.98
2022-10-18T03:51:57.206Z,5.01
2022-10-18T03:54:25.011Z,5.01
2022-10-18T03:56:56.359Z,4.92
2022-10-18T03:59:24.196Z,5.04
2022-10-18T04:01:52.111Z,5.01
2022-10-18T04:04:20.583Z,5.02
2022-10-18T04:06:48.420Z,5.02
2022-10-18T04:09:16.474Z,5.05
2022-10-18T04:11:44.748Z,4.98
2022-10-18T04:14:12.467Z,5.01
2022-10-18T04:16:40.283Z,5.03
2022-10-18T04:19:08.624Z,4.97
2022-10-18T04:21:36.976Z,5.05
2022-10-18T04:24:05.126Z,5.04
2022-10-18T04:26:33.378Z,5.11
2022-10-18T04:29:01.257Z,5.09
2022-10-18T04:31:29.184Z,5.14
2022-10-18T04:33:57.254Z,5.30
2022-10-18T04:36:25.158Z,5.36
2022-10-18T04:38:52.974Z,5.35
2022-10-18T04:41:21.250Z,5.40
2022-10-18T04:43:49.262Z,5.42
2022-10-18T04:46:17.129Z,5.55
2022-10-18T04:48:45.415Z,5.52
2022-10-18T04:51:13.324Z,5.60
2022-10-18T04:53:41.149Z,5.65
2022-10-18T04:56:09.462Z,5.61
2022-10-18T04:58:37.244Z,5.56
2022-10-18T05:01:06.949Z,5.62
2022-10-18T05:03:35.432Z,5.72
2022-10-18T05:06:03.671Z,5.79
2022-10-18T05:08:33.231Z,5.71
2022-10-18T05:11:04.856Z,5.90
2022-10-18T05:13:33.510Z,6.03
2022-10-18T05:16:02.818Z,5.96
2022-10-18T05:18:30.895Z,6.10
2022-10-18T05:20:59.034Z,5.98
2022-10-18T05:23:27.231Z,6.10
2022-10-18T05:25:55.352Z,6.18
2022-10-18T05:28:39.297Z,6.12
2022-10-18T05:31:12.021Z,6.33
2022-10-18T05:33:40.512Z,6.25
2022-10-18T05:36:08.801Z,6.44
2022-10-18T05:38:43.482Z,6.46
2022-10-18T05:41:13.040Z,6.54
2022-10-18T05:43:41.490Z,6.65
2022-10-18T05:46:14.522Z,6.58
2022-10-18T05:48:45.055Z,6.52
2022-10-18T05:51:12.863Z,6.73
2022-10-18T05:53:40.557Z,6.75
2022-10-18T05:56:14.839Z,6.88
2022-10-18T05:58:43.340Z,6.81
2022-10-18T06:01:11.583Z,6.81
2022-10-18T06:03:39.896Z,6.86
2022-10-18T06:06:10.281Z,6.84
2022-10-18T06:08:43.050Z,6.91
2022-10-18T06:11:14.832Z,6.94
2022-10-18T06:13:44.699Z,6.93
2022-10-18T06:16:14.448Z,7.11
2022-10-18T06:18:42.669Z,6.98
2022-10-18T06:21:13.319Z,7.06
2022-10-18T06:23:41.535Z,6.90
2022-10-18T06:26:11.851Z,7.07
2022-10-18T06:28:39.785Z,7.01
2022-10-18T06:31:08.108Z,7.06
2022-10-18T06:33:37.430Z,7.05
2022-10-18T06:36:08.843Z,6.99
2022-10-18T06:38:40.124Z,6.98
2022-10-18T06:41:09.242Z,6.90
2022-10-18T06:43:37.705Z,7.00
2022-10-18T06:46:08.382Z,6.92
2022-10-18T06:48:37.050Z,6.90
2022-10-18T06:51:07.120Z,6.88
2022-10-18T06:53:43.907Z,6.95
2022-10-18T06:56:22.204Z,6.97
2022-10-18T06:58:50.176Z,6.95
2022-10-18T07:01:18.827Z,6.96
2022-10-18T07:03:49.047Z,6.95
2022-10-18T07:06:19.022Z,6.93
2022-10-18T07:08:49.157Z,7.01
2022-10-18T07:11:27.940Z,6.97
2022-10-18T07:14:05.105Z,7.02
2022-10-18T07:16:34.171Z,6.97
2022-10-18T07:19:02.828Z,7.07
2022-10-18T07:21:30.762Z,7.06
2022-10-18T07:23:58.575Z,6.96
2022-10-18T07:26:35.049Z,7.09
2022-10-18T07:29:08.476Z,7.15
2022-10-18T07:31:38.873Z,7.09
2022-10-18T07:34:07.974Z,7.22
2022-10-18T07:36:36.111Z,7.22
2022-10-18T07:39:07.123Z,7.16
2022-10-18T07:41:35.009Z,7.20
2022-10-18T07:44:04.564Z,7.22
2022-10-18T07:46:32.836Z,7.13
2022-10-18T07:49:00.701Z,7.20
2022-10-18T07:51:29.100Z,7.27
2022-10-18T07:53:56.919Z,7.17
2022-10-18T07:56:24.715Z,7.12
2022-10-18T07:58:55.935Z,7.24
2022-10-18T08:01:25.180Z,7.23
2022-10-18T08:03:54.021Z,7.24
2022-10-18T08:06:23.501Z,7.22
2022-10-18T08:08:51.333Z,7.28
2022-10-18T08:11:21.953Z,7.19
2022-10-18T08:13:50.009Z,7.25
2022-10-18T08:16:28.894Z,7.28
2022-10-18T08:18:58.711Z,7.23
2022-10-18T08:21:27.216Z,7.30
2022-10-18T08:23:55.397Z,7.34
2022-10-18T08:26:23.988Z,7.32
2022-10-18T08:29:10.310Z,7.34
2022-10-18T08:31:40.643Z,7.39
2022-10-18T08:34:08.426Z,7.38
2022-10-18T08:36:36.268Z,7.37
2022-10-18T08:39:05.219Z,7.32
2022-10-18T08:41:33.119Z,7.32
2022-10-18T08:44:28.001Z,7.31
2022-10-18T08:47:02.505Z,7.27
2022-10-18T08:49:35.246Z,7.25
2022-10-18T08:52:17.376Z,7.33
2022-10-18T08:55:10.343Z,7.35
2022-10-18T08:57:38.661Z,7.30
2022-10-18T09:00:30.545Z,7.34
2022-10-18T09:03:32.235Z,7.38
2022-10-18T09:06:33.419Z,7.30
2022-10-18T09:09:20.484Z,7.31
2022-10-18T09:11:58.039Z,7.34
2022-10-18T09:14:38.824Z,7.33
2022-10-18T09:17:28.781Z,7.37
2022-10-18T09:20:17.252Z,7.32
2022-10-18T09:23:20.508Z,7.35
2022-10-18T09:25:53.262Z,7.30
2022-10-18T09:28:30.882Z,7.31
2022-10-18T09:31:28.429Z,7.27
2022-10-18T09:34:03.350Z,7.31
2022-10-18T09:36:38.197Z,7.33
2022-10-18T09:39:15.895Z,7.32
2022-10-18T09:41:52.796Z,7.32
2022-10-18T09:44:37.004Z,7.35
2022-10-18T09:47:21.745Z,7.26
2022-10-18T09:50:02.135Z,7.22
2022-10-18T09:52:42.899Z,7.32
2022-10-18T09:55:27.918Z,7.35
2022-10-18T09:58:02.937Z,7.31
2022-10-18T10:00:35.487Z,7.32
2022-10-18T10:03:15.044Z,7.34
2022-10-18T10:05:43.788Z,7.32
2022-10-18T10:08:12.299Z,7.35
2022-10-18T10:10:42.074Z,7.45
2022-10-18T10:13:23.246Z,7.49
2022-10-18T10:16:02.497Z,7.48
2022-10-18T10:18:33.864Z,7.53
2022-10-18T10:21:06.189Z,7.58
2022-10-18T10:23:39.441Z,7.60
2022-10-18T10:26:25.932Z,7.63
2022-10-18T10:31:38.757Z,7.75
2022-10-18T10:34:13.268Z,7.80
2022-10-18T10:36:52.846Z,7.89
2022-10-18T10:39:23.534Z,7.89
2022-10-18T10:41:59.084Z,8.06
2022-10-18T10:44:30.958Z,8.09
2022-10-18T10:47:00.090Z,8.16
2022-10-18T10:49:40.946Z,8.16
2022-10-18T10:52:28.653Z,8.25
2022-10-18T10:55:17.022Z,8.43
2022-10-18T10:57:49.742Z,8.48
2022-10-18T11:00:39.059Z,8.52
2022-10-18T11:03:27.997Z,8.64
2022-10-18T11:05:58.175Z,8.48
2022-10-18T11:08:33.171Z,8.56
2022-10-18T11:11:20.684Z,8.67
2022-10-18T11:14:13.767Z,8.75
2022-10-18T11:17:23.042Z,9.02
2022-10-18T11:20:10.064Z,9.09
2022-10-18T11:22:56.496Z,9.19
2022-10-18T11:25:48.770Z,9.17
2022-10-18T11:28:54.888Z,9.27
2022-10-18T11:31:36.208Z,9.38
2022-10-18T11:34:15.110Z,9.24
2022-10-18T11:36:54.990Z,9.18
2022-10-18T11:39:24.434Z,9.54
2022-10-18T11:42:10.705Z,9.60
2022-10-18T11:44:56.586Z,9.66
2022-10-18T11:47:58.789Z,9.65
2022-10-18T11:50:41.140Z,9.83
2022-10-18T11:53:29.283Z,9.98
2022-10-18T11:56:19.113Z,9.97
2022-10-18T11:59:02.345Z,9.69
2022-10-18T12:02:01.868Z,10.05
2022-10-18T12:04:49.123Z,10.15
2022-10-18T12:07:42.372Z,9.98
2022-10-18T12:10:26.225Z,10.22
2022-10-18T12:13:13.389Z,10.23
2022-10-18T12:15:42.019Z,10.28
2022-10-18T12:18:20.325Z,9.99
2022-10-18T12:20:57.207Z,10.40
2022-10-18T12:23:44.955Z,10.37
2022-10-18T12:26:14.438Z,10.48
2022-10-18T12:29:00.614Z,10.48
2022-10-18T12:31:37.214Z,10.56
2022-10-18T12:34:38.534Z,10.57
2022-10-18T12:37:43.746Z,10.64
2022-10-18T12:40:36.279Z,10.64
2022-10-18T12:43:11.290Z,10.64
2022-10-18T12:45:57.457Z,10.78
2022-10-18T12:48:30.572Z,10.72
2022-10-18T12:51:04.408Z,10.82
2022-10-18T12:53:34.135Z,10.70
2022-10-18T12:56:42.091Z,10.70
2022-10-18T12:59:16.428Z,10.76
2022-10-18T13:04:39.078Z,10.88
2022-10-18T13:07:08.486Z,11.10
2022-10-18T13:09:38.944Z,10.82
2022-10-18T13:12:09.911Z,11.11
2022-10-18T13:15:07.346Z,11.05
2022-10-18T13:18:31.261Z,11.13
2022-10-18T13:21:16.218Z,11.02
2022-10-18T13:24:10.589Z,11.08
2022-10-18T13:26:41.483Z,11.16
2022-10-18T13:29:42.999Z,11.26
2022-10-18T13:32:36.649Z,11.17
2022-10-18T13:35:24.400Z,11.31
2022-10-18T13:38:00.219Z,11.39
2022-10-18T14:46:31.831Z,11.49
2022-10-18T14:49:02.119Z,11.38
2022-10-18T14:51:36.009Z,11.34
2022-10-18T14:54:04.225Z,11.16
2022-10-18T14:56:37.692Z,11.13
2022-10-18T14:59:16.637Z,11.05
2022-10-18T15:01:55.101Z,11.05
2022-10-18T15:04:27.831Z,11.07
2022-10-18T15:06:57.159Z,11.07
2022-10-18T15:09:25.994Z,10.97
2022-10-18T15:11:58.012Z,10.95
2022-10-18T15:14:28.721Z,10.89
2022-10-18T15:17:35.743Z,10.70
2022-10-18T15:20:25.410Z,10.60
2022-10-18T15:22:53.799Z,10.61
2022-10-18T15:25:32.117Z,10.66
2022-10-18T15:28:01.800Z,10.58
2022-10-18T15:30:38.835Z,10.67
2022-10-18T15:33:10.110Z,10.72
2022-10-18T15:35:39.209Z,10.76
2022-10-18T15:38:25.951Z,10.69
2022-10-18T15:40:55.034Z,10.68
2022-10-18T15:43:28.619Z,10.61
2022-10-18T15:46:03.223Z,10.54
2022-10-18T15:48:35.973Z,10.48
2022-10-18T15:51:31.728Z,10.56
2022-10-18T15:53:59.459Z,10.46
2022-10-18T15:56:38.515Z,10.54
2022-10-18T15:59:22.667Z,10.55
2022-10-18T16:01:51.180Z,10.54
2022-10-18T16:04:28.393Z,10.54
2022-10-18T16:06:57.262Z,10.48
2022-10-18T16:09:28.061Z,10.59
2022-10-18T16:11:57.451Z,10.60
2022-10-18T16:14:26.606Z,10.61
2022-10-18T16:16:56.832Z,10.60
2022-10-18T16:19:25.083Z,10.66
2022-10-18T16:21:54.650Z,10.61
2022-10-18T16:24:23.279Z,10.64
2022-10-18T16:26:51.652Z,10.60
2022-10-18T16:29:29.071Z,10.62
2022-10-18T16:31:58.479Z,10.68
2022-10-18T16:34:27.487Z,10.60
2022-10-18T16:36:56.039Z,10.64
2022-10-18T16:39:24.713Z,10.66
2022-10-18T16:41:52.878Z,10.65
2022-10-18T16:44:20.714Z,10.48
2022-10-18T16:46:51.159Z,10.40
2022-10-18T16:49:24.902Z,10.66
2022-10-18T16:51:56.396Z,10.54
2022-10-18T16:54:24.200Z,10.37
2022-10-18T16:56:52.166Z,10.40
2022-10-18T16:59:31.424Z,10.29
2022-10-18T17:02:01.819Z,10.07
2022-10-18T17:04:33.508Z,10.12
2022-10-18T17:07:01.327Z,10.14
2022-10-18T17:09:29.283Z,10.20
2022-10-18T17:11:57.631Z,10.09
2022-10-18T17:14:25.580Z,10.22
2022-10-18T17:16:56.086Z,10.21
2022-10-18T17:19:25.881Z,10.14
2022-10-18T17:22:01.609Z,10.03
2022-10-18T17:24:31.324Z,9.88
2022-10-18T17:26:59.145Z,9.90
2022-10-18T17:29:27.110Z,9.95
2022-10-18T17:31:55.393Z,10.07
2022-10-18T17:34:23.303Z,9.99
2022-10-18T17:36:51.221Z,9.96
2022-10-18T17:39:19.662Z,9.90
2022-10-18T17:41:47.456Z,9.79
2022-10-18T17:44:15.338Z,9.82
2022-10-18T17:46:43.550Z,9.86
2022-10-18T17:49:11.352Z,9.66
2022-10-18T17:51:39.219Z,9.39
2022-10-18T17:54:08.226Z,9.40
2022-10-18T17:56:36.213Z,9.26
2022-10-18T17:59:04.038Z,9.22
2022-10-18T18:01:32.293Z,9.05
2022-10-18T18:04:02.636Z,9.04
2022-10-18T18:06:36.667Z,8.88
2022-10-18T18:09:16.380Z,8.82
2022-10-18T18:11:51.823Z,8.78
2022-10-18T18:14:20.403Z,8.58
2022-10-18T18:16:51.238Z,8.49
2022-10-18T18:19:21.644Z,8.32
2022-10-18T18:21:54.204Z,8.21
2022-10-18T18:24:26.177Z,8.23
2022-10-18T18:26:58.002Z,8.23
2022-10-18T18:29:27.686Z,8.36
2022-10-18T18:31:56.019Z,8.38
2022-10-18T18:34:23.971Z,8.38
2022-10-18T18:36:53.213Z,8.43
2022-10-18T18:39:24.753Z,8.42
2022-10-18T18:41:53.585Z,8.42
2022-10-18T18:44:22.488Z,8.43
2022-10-18T18:46:50.407Z,8.33
2022-10-18T18:49:21.343Z,8.29
2022-10-18T18:51:52.498Z,8.23
2022-10-18T18:54:22.294Z,8.18
2022-10-18T18:56:50.797Z,8.07
2022-10-18T18:59:18.723Z,8.06
2022-10-18T19:01:46.857Z,7.96
2022-10-18T19:04:15.424Z,7.82
2022-10-18T19:06:46.967Z,7.68
2022-10-18T19:09:22.448Z,7.62
2022-10-18T19:11:55.569Z,7.60
2022-10-18T19:14:25.703Z,7.50
2022-10-18T19:16:55.346Z,7.36
2022-10-18T19:19:24.878Z,7.30
2022-10-18T19:21:57.911Z,7.16
2022-10-18T19:24:28.029Z,7.07
2022-10-18T19:27:01.530Z,7.01
2022-10-18T19:29:32.075Z,6.98
2022-10-18T19:32:03.130Z,7.08
2022-10-18T19:34:32.727Z,6.95
2022-10-18T19:37:01.278Z,6.86
2022-10-18T19:39:31.565Z,6.83
2022-10-18T19:42:03.533Z,6.70
2022-10-18T19:44:33.034Z,6.44
2022-10-18T19:47:01.358Z,6.39
2022-10-18T19:49:29.393Z,6.40
2022-10-18T19:51:57.590Z,6.28
2022-10-18T19:54:25.813Z,6.26
2022-10-18T19:56:53.696Z,6.17
2022-10-18T19:59:23.168Z,6.01
2022-10-18T20:01:51.480Z,5.78
2022-10-18T20:04:19.780Z,5.93
2022-10-18T20:06:47.896Z,5.87
2022-10-18T20:09:20.801Z,5.77
2022-10-18T20:11:49.382Z,5.72
2022-10-18T20:14:17.198Z,5.52
2022-10-18T20:16:48.280Z,5.61
2022-10-18T20:19:16.493Z,5.58
2022-10-18T20:21:44.426Z,5.57
2022-10-18T20:24:15.643Z,5.57
2022-10-18T20:26:44.039Z,5.54
2022-10-18T20:29:12.042Z,5.53
2022-10-18T20:31:40.130Z,5.52
2022-10-18T20:34:11.528Z,5.43
2022-10-18T20:36:43.312Z,5.51
2022-10-18T20:39:11.600Z,5.38
2022-10-18T20:41:42.518Z,5.69
2022-10-18T20:44:14.308Z,5.65
2022-10-18T20:46:44.255Z,5.59
2022-10-18T20:49:15.129Z,5.70
2022-10-18T20:51:43.423Z,5.70
2022-10-18T20:54:11.949Z,5.75
2022-10-18T20:56:40.287Z,5.74
2022-10-18T20:59:10.201Z,5.85
2022-10-18T21:01:39.466Z,5.82
2022-10-18T21:04:09.360Z,5.77
2022-10-18T21:06:43.023Z,5.81
2022-10-18T21:09:19.636Z,5.76
2022-10-18T21:11:50.454Z,5.65
2022-10-18T21:14:20.476Z,5.60
2022-10-18T21:16:49.731Z,5.46
2022-10-18T21:19:22.367Z,5.41
2022-10-18T21:21:53.156Z,5.42
2022-10-18T21:24:22.404Z,5.32
2022-10-18T21:26:53.700Z,5.35
2022-10-18T21:29:27.424Z,5.32
2022-10-18T21:31:58.366Z,5.34
2022-10-18T21:34:26.863Z,5.30
2022-10-18T21:36:55.280Z,5.20
2022-10-18T21:41:57.919Z,5.21
2022-10-18T21:44:25.833Z,5.28
2022-10-18T21:46:55.273Z,5.18
2022-10-18T21:49:25.294Z,5.21
2022-10-18T21:51:56.058Z,5.22
2022-10-18T21:54:24.380Z,5.21
2022-10-18T21:56:52.283Z,5.14
2022-10-18T21:59:20.285Z,5.14
2022-10-18T22:01:48.452Z,5.13
2022-10-18T22:04:22.515Z,5.11
2022-10-18T22:06:51.099Z,5.11
2022-10-18T22:09:21.386Z,5.13
2022-10-18T22:11:52.430Z,5.20
2022-10-18T22:14:21.365Z,5.26
2022-10-18T22:16:49.309Z,5.37
2022-10-18T22:19:17.326Z,5.41
2022-10-18T22:21:48.080Z,5.47
2022-10-18T22:24:15.941Z,5.48
2022-10-18T22:26:45.276Z,5.56
2022-10-18T22:29:16.785Z,5.63
2022-10-18T22:31:54.660Z,5.70
2022-10-18T22:34:29.114Z,5.75
2022-10-18T22:36:57.047Z,5.80
2022-10-18T22:39:28.086Z,5.81
2022-10-18T22:41:57.554Z,5.83
2022-10-18T22:44:25.860Z,5.80
2022-10-18T22:46:53.751Z,5.83
2022-10-18T22:49:21.574Z,5.89
2022-10-18T22:51:49.844Z,5.96
2022-10-18T22:54:17.936Z,5.97
2022-10-18T22:56:45.630Z,5.98
2022-10-18T22:59:13.994Z,5.99
2022-10-18T23:01:41.853Z,5.98
2022-10-18T23:04:10.827Z,6.01
2022-10-18T23:06:40.949Z,6.02
2022-10-18T23:09:11.422Z,6.02
2022-10-18T23:11:42.660Z,6.05
2022-10-18T23:14:10.840Z,6.07
2022-10-18T23:16:39.099Z,6.08
2022-10-18T23:19:07.030Z,6.10
2022-10-18T23:21:35.241Z,6.11
2022-10-18T23:24:03.759Z,6.13
2022-10-18T23:26:32.212Z,6.15
2022-10-18T23:29:00.478Z,6.14
2022-10-18T23:31:31.360Z,6.12
2022-10-18T23:34:01.718Z,6.15
2022-10-18T23:36:31.216Z,6.15
2022-10-18T23:38:59.391Z,6.13
2022-10-18T23:41:27.322Z,6.10
2022-10-18T23:43:55.731Z,6.09
2022-10-18T23:46:23.999Z,6.07
2022-10-18T23:48:55.053Z,6.03
2022-10-18T23:51:23.345Z,6.04
2022-10-18T23:53:51.115Z,6.04
2022-10-18T23:56:18.851Z,6.04
2022-10-18T23:58:47.084Z,6.00
